Time;durP1;ratioP1;P1;durP2;ratioP2;P2;SDS_P1;SDS_P2;PMS_P1;PMS_P2;Temp;Humidity;BMP_temperature;BMP_pressure;BME280_temperature;BME280_humidity;BME280_pressure;Samples;Min_cycle;Max_cycle;Signal;HPM_P1;HPM_P2
2021/04/29 00:01:08;;;;;;;51.10;36.40;;;;;;;3.51;74.12;101394.33;1742365;82;21217;-75
2021/04/29 00:03:37;;;;;;;60.48;40.33;;;;;;;3.44;74.24;101392.29;1730925;81;20979;-77
2021/04/29 00:06:06;;;;;;;63.28;44.42;;;;;;;3.41;74.53;101395.40;1753626;81;20931;-76
2021/04/29 00:08:35;;;;;;;65.60;43.65;;;;;;;3.43;74.77;101393.64;1735611;81;21372;-75
2021/04/29 00:11:04;;;;;;;56.37;41.80;;;;;;;3.44;74.65;101394.88;1761907;81;20950;-76
2021/04/29 00:13:34;;;;;;;67.47;48.87;;;;;;;3.45;74.59;101397.91;1761806;81;21205;-76
2021/04/29 00:16:02;;;;;;;66.55;45.60;;;;;;;3.44;74.34;101394.88;1761807;81;20954;-75
2021/04/29 00:18:30;;;;;;;66.72;45.63;;;;;;;3.41;74.10;101391.06;1761859;81;21025;-76
2021/04/29 00:20:59;;;;;;;67.20;46.23;;;;;;;3.39;73.94;101393.27;1761790;80;21459;-75
2021/04/29 00:23:29;;;;;;;68.30;45.67;;;;;;;3.35;74.15;101392.91;1761904;81;20982;-74
2021/04/29 00:25:57;;;;;;;62.85;46.53;;;;;;;3.32;74.38;101392.52;1761824;81;22227;-76
2021/04/29 00:28:25;;;;;;;66.00;45.50;;;;;;;3.30;74.61;101390.40;1761787;81;20958;-75
2021/04/29 00:30:55;;;;;;;68.70;46.58;;;;;;;3.30;74.66;101387.36;1761854;81;20953;-75
2021/04/29 00:33:23;;;;;;;61.13;40.45;;;;;;;3.30;74.57;101392.98;1761779;81;20950;-73
2021/04/29 00:35:52;;;;;;;46.98;32.03;;;;;;;3.26;74.47;101402.99;1761842;80;20990;-73
2021/04/29 00:38:20;;;;;;;38.35;24.23;;;;;;;3.23;74.45;101399.17;1761822;81;21372;-73
2021/04/29 00:40:50;;;;;;;37.23;23.95;;;;;;;3.20;74.43;101400.08;1761710;81;20998;-73
2021/04/29 00:43:18;;;;;;;51.08;30.85;;;;;;;3.17;74.37;101400.11;1761791;81;21001;-74
2021/04/29 00:45:47;;;;;;;53.63;30.85;;;;;;;3.15;74.51;101406.20;1761785;80;21506;-74
2021/04/29 00:48:16;;;;;;;41.13;31.62;;;;;;;3.10;74.50;101406.28;1761807;81;20954;-76
2021/04/29 00:50:44;;;;;;;45.43;30.37;;;;;;;3.08;74.77;101401.56;1761875;80;21315;-77
2021/04/29 00:53:12;;;;;;;48.83;30.60;;;;;;;3.10;74.85;101411.47;1761782;81;21009;-77
2021/04/29 00:55:42;;;;;;;47.05;32.67;;;;;;;3.10;74.75;101407.13;1761829;81;21005;-76
2021/04/29 00:58:10;;;;;;;49.63;34.40;;;;;;;3.08;74.51;101406.75;1761778;80;21033;-77
2021/04/29 01:00:39;;;;;;;44.58;31.57;;;;;;;3.05;74.36;101402.48;1761804;80;21498;-77
2021/04/29 01:03:17;;;;;;;45.65;30.57;;;;;;;3.03;74.41;101409.86;1761736;80;21379;-76
2021/04/29 01:05:50;;;;;;;46.18;30.50;;;;;;;2.99;74.79;101403.86;1758353;80;21010;-74
2021/04/29 01:08:30;;;;;;;40.90;28.02;;;;;;;2.99;75.01;101405.16;1814585;78;21010;-72
2021/04/29 01:11:06;;;;;;;51.60;34.83;;;;;;;2.99;74.92;101410.34;1775926;80;21050;-74
2021/04/29 01:13:34;;;;;;;29.85;20.25;;;;;;;2.99;74.91;101406.90;1745205;82;20943;-74
2021/04/29 01:16:02;;;;;;;42.73;28.30;;;;;;;2.97;74.90;101405.62;1814809;79;21362;-73
2021/04/29 01:18:31;;;;;;;46.20;31.68;;;;;;;2.92;74.91;101403.55;1814592;78;21559;-74
2021/04/29 01:21:15;;;;;;;42.05;29.65;;;;;;;2.89;74.91;101404.88;1776031;80;21436;-74
2021/04/29 01:24:12;;;;;;;41.98;26.75;;;;;;;2.86;74.91;101399.30;1775623;80;21007;-74
2021/04/29 01:26:55;;;;;;;36.93;24.82;;;;;;;2.84;75.11;101397.17;1747619;80;21378;-74
2021/04/29 01:29:27;;;;;;;37.90;27.67;;;;;;;2.83;75.33;101397.22;1775957;80;22258;-75
2021/04/29 01:31:55;;;;;;;42.78;29.25;;;;;;;2.83;75.58;101401.95;1776055;80;21473;-75
2021/04/29 01:34:26;;;;;;;43.40;32.08;;;;;;;2.87;75.51;101400.19;1775807;80;20958;-75
2021/04/29 01:36:55;;;;;;;45.50;32.28;;;;;;;2.88;75.11;101400.14;1745295;82;21478;-74
2021/04/29 01:39:24;;;;;;;44.85;28.85;;;;;;;2.88;74.89;101403.17;1814750;79;20907;-75
2021/04/29 01:41:53;;;;;;;40.03;28.73;;;;;;;2.85;74.80;101404.53;1775940;80;21200;-75
2021/04/29 01:44:23;;;;;;;39.65;28.73;;;;;;;2.81;74.80;101403.71;1814525;79;20967;-76
2021/04/29 01:46:53;;;;;;;31.90;20.75;;;;;;;2.78;74.95;101406.36;1776003;80;21030;-75
2021/04/29 01:49:23;;;;;;;33.90;23.73;;;;;;;2.72;75.01;101406.44;1717208;82;20919;-75
2021/04/29 01:51:52;;;;;;;39.53;27.05;;;;;;;2.69;75.24;101408.64;1814677;79;21007;-75
2021/04/29 01:54:21;;;;;;;44.75;31.17;;;;;;;2.64;75.32;101412.16;1814616;79;21813;-74
2021/04/29 01:56:51;;;;;;;44.15;31.10;;;;;;;2.59;75.74;101409.64;1814679;79;20955;-74
2021/04/29 01:59:19;;;;;;;33.60;24.95;;;;;;;2.58;75.98;101406.65;1745202;81;21010;-74
2021/04/29 02:01:48;;;;;;;44.15;26.00;;;;;;;2.61;75.91;101410.92;1752162;82;20938;-75
2021/04/29 02:04:16;;;;;;;38.73;24.57;;;;;;;2.61;75.98;101407.04;1745051;82;21390;-73
2021/04/29 02:06:47;;;;;;;36.28;23.10;;;;;;;2.62;76.27;101409.62;1776066;80;20927;-74
2021/04/29 02:09:15;;;;;;;48.98;23.98;;;;;;;2.64;75.94;101414.75;1745110;82;20958;-74
2021/04/29 02:11:55;;;;;;;33.00;24.30;;;;;;;2.63;75.89;101409.17;1814609;78;20934;-73
2021/04/29 02:14:41;;;;;;;46.53;27.93;;;;;;;2.63;76.05;101413.05;1745096;81;21511;-77
2021/04/29 02:17:44;;;;;;;39.67;27.25;;;;;;;2.62;75.94;101412.20;1752087;82;21043;-76
2021/04/29 02:20:13;;;;;;;49.83;28.07;;;;;;;2.62;75.72;101411.33;1745276;81;21386;-76
2021/04/29 02:22:43;;;;;;;43.70;29.00;;;;;;;2.59;75.74;101410.94;1814546;79;20990;-76
2021/04/29 02:25:14;;;;;;;41.58;27.73;;;;;;;2.56;75.82;101421.80;1814575;79;21044;-75
2021/04/29 02:27:42;;;;;;;41.60;27.50;;;;;;;2.52;75.95;101422.27;1814611;79;21010;-74
2021/04/29 02:30:13;;;;;;;38.63;24.95;;;;;;;2.49;75.93;101426.20;1745171;82;21003;-76
2021/04/29 02:32:41;;;;;;;43.38;25.62;;;;;;;2.46;76.07;101430.95;1752121;82;21406;-74
2021/04/29 02:35:13;;;;;;;38.67;25.32;;;;;;;2.46;76.33;101427.52;1745048;81;21006;-75
2021/04/29 02:37:43;;;;;;;36.77;23.60;;;;;;;2.46;76.56;101427.06;1814588;78;20978;-74
2021/04/29 02:40:15;;;;;;;37.10;25.12;;;;;;;2.50;76.59;101426.60;1745185;82;20995;-73
2021/04/29 02:42:45;;;;;;;43.40;29.12;;;;;;;2.53;76.46;101430.88;1747697;82;20943;-73
2021/04/29 02:45:14;;;;;;;36.42;26.33;;;;;;;2.51;76.20;101428.30;1745168;82;21357;-73
2021/04/29 02:47:48;;;;;;;30.62;22.17;;;;;;;2.46;76.12;101434.84;1775923;80;21381;-74
2021/04/29 02:50:21;;;;;;;34.63;20.95;;;;;;;2.41;76.29;101431.46;1814921;79;22180;-73
2021/04/29 02:52:52;;;;;;;26.17;15.95;;;;;;;2.40;76.29;101432.77;1776238;80;21448;-72
2021/04/29 02:55:22;;;;;;;23.38;16.25;;;;;;;2.41;76.17;101435.79;1814926;79;21425;-74
2021/04/29 02:57:50;;;;;;;25.70;16.52;;;;;;;2.44;76.13;101437.03;1815187;79;22095;-73
2021/04/29 03:00:19;;;;;;;22.00;15.40;;;;;;;2.47;76.17;101437.02;1745623;81;21042;-72
2021/04/29 03:02:48;;;;;;;32.23;19.90;;;;;;;2.53;76.16;101439.94;1752599;82;21049;-73
2021/04/29 03:05:16;;;;;;;30.23;19.75;;;;;;;2.60;76.16;101441.56;1738519;81;20945;-71
2021/04/29 03:07:45;;;;;;;33.08;21.12;;;;;;;2.67;76.08;101440.63;1755948;80;20911;-74
2021/04/29 03:10:13;;;;;;;23.57;16.10;;;;;;;2.74;76.01;101446.58;1738579;81;21384;-73
2021/04/29 03:12:42;;;;;;;21.27;16.62;;;;;;;2.80;75.85;101450.34;1765390;81;21017;-75
2021/04/29 03:15:11;;;;;;;27.05;17.00;;;;;;;2.86;75.58;101445.93;1765586;81;21014;-74
2021/04/29 03:17:39;;;;;;;28.20;16.50;;;;;;;2.93;75.43;101444.11;1765258;81;21136;-72
2021/04/29 03:20:10;;;;;;;22.80;17.10;;;;;;;3.03;75.40;101446.14;1760729;81;20961;-72
2021/04/29 03:22:39;;;;;;;26.25;17.15;;;;;;;3.12;75.54;101448.58;1763781;80;21372;-74
2021/04/29 03:25:08;;;;;;;23.70;16.93;;;;;;;3.22;75.37;101441.50;1761830;80;20985;-73
2021/04/29 03:27:36;;;;;;;33.42;21.27;;;;;;;3.32;75.15;101447.81;1762012;81;20945;-72
2021/04/29 03:30:10;;;;;;;25.15;18.77;;;;;;;3.45;75.17;101447.62;1761914;81;21467;-74
2021/04/29 03:32:39;;;;;;;28.62;17.15;;;;;;;3.58;75.16;101451.70;1759238;81;21472;-73
2021/04/29 03:35:10;;;;;;;28.30;16.42;;;;;;;3.73;75.18;101451.86;1761972;81;21384;-75
2021/04/29 03:37:38;;;;;;;18.77;13.38;;;;;;;3.86;74.97;101452.05;1761983;81;21044;-75
2021/04/29 03:40:09;;;;;;;22.90;16.27;;;;;;;3.99;74.82;101459.61;1761844;81;20942;-75
2021/04/29 03:42:38;;;;;;;27.62;16.70;;;;;;;4.09;74.53;101456.81;1761802;81;21330;-73
2021/04/29 03:45:07;;;;;;;24.10;18.12;;;;;;;4.23;74.25;101463.02;1761804;81;20933;-74
2021/04/29 03:47:35;;;;;;;20.88;16.90;;;;;;;4.38;74.16;101467.05;1761857;80;21254;-73
2021/04/29 03:50:06;;;;;;;26.62;16.35;;;;;;;4.51;73.90;101463.73;1761719;81;20962;-73
2021/04/29 03:52:34;;;;;;;24.72;18.15;;;;;;;4.60;73.32;101459.64;1761926;81;20942;-74
2021/04/29 03:55:02;;;;;;;24.82;15.98;;;;;;;4.67;73.01;101453.87;1761771;81;20958;-76
2021/04/29 03:57:31;;;;;;;31.05;17.85;;;;;;;4.81;72.90;101461.38;1761859;81;20985;-75
2021/04/29 03:59:59;;;;;;;19.62;14.75;;;;;;;4.93;72.80;101455.88;1761930;81;21377;-73
2021/04/29 04:02:27;;;;;;;24.00;15.93;;;;;;;5.04;73.07;101459.54;1761840;81;20950;-74
2021/04/29 04:04:56;;;;;;;26.75;16.75;;;;;;;5.15;73.24;101459.69;1761730;80;21189;-75
2021/04/29 04:07:24;;;;;;;29.35;18.20;;;;;;;5.29;73.02;101458.08;1789253;80;20930;-73
2021/04/29 04:09:53;;;;;;;29.18;19.60;;;;;;;5.45;72.24;101454.64;1754024;81;20919;-76
2021/04/29 04:12:21;;;;;;;30.20;18.07;;;;;;;5.60;71.45;101455.55;1765624;81;21222;-72
2021/04/29 04:14:49;;;;;;;39.15;21.55;;;;;;;5.72;71.29;101454.37;1754388;81;20963;-72
2021/04/29 04:17:17;;;;;;;34.58;19.30;;;;;;;5.83;71.39;101457.15;1765645;81;21381;-71
2021/04/29 04:19:46;;;;;;;31.77;20.62;;;;;;;5.94;70.96;101453.38;1753987;81;20947;-73
2021/04/29 04:22:14;;;;;;;27.25;19.30;;;;;;;6.07;70.84;101452.61;1765762;81;20895;-73
2021/04/29 04:24:43;;;;;;;34.00;19.80;;;;;;;6.22;70.90;101441.75;1754069;81;21868;-74
2021/04/29 04:27:11;;;;;;;35.88;19.87;;;;;;;6.38;70.79;101440.86;1753971;81;20966;-74
2021/04/29 04:29:40;;;;;;;38.10;21.73;;;;;;;6.55;71.39;101433.83;1752443;81;21006;-73
2021/04/29 04:32:09;;;;;;;31.95;19.40;;;;;;;6.77;71.20;101437.09;1753938;81;21049;-78
2021/04/29 04:34:38;;;;;;;33.15;20.82;;;;;;;6.99;70.71;101434.66;1765640;81;21029;-79
2021/04/29 04:37:06;;;;;;;41.75;22.98;;;;;;;7.19;70.33;101435.32;1754027;81;21438;-75
2021/04/29 04:39:36;;;;;;;34.00;22.35;;;;;;;7.38;69.99;101442.08;1765559;81;21077;-75
2021/04/29 04:42:05;;;;;;;37.88;22.35;;;;;;;7.54;69.82;101441.13;1754008;81;20943;-75
2021/04/29 04:44:34;;;;;;;44.38;24.15;;;;;;;7.70;69.57;101444.06;1753914;81;20939;-77
2021/04/29 04:47:02;;;;;;;43.23;23.57;;;;;;;7.84;69.55;101440.04;1765626;81;20923;-77
2021/04/29 04:49:31;;;;;;;39.63;23.67;;;;;;;8.00;69.49;101441.64;1754072;81;21484;-76
2021/04/29 04:52:00;;;;;;;43.10;20.77;;;;;;;8.19;69.45;101439.23;1765581;81;21435;-77
2021/04/29 04:54:28;;;;;;;35.90;23.22;;;;;;;8.49;69.33;101434.66;1754106;81;21543;-77
2021/04/29 04:56:57;;;;;;;45.80;23.05;;;;;;;8.86;69.32;101440.21;1765573;81;20942;-77
2021/04/29 04:59:26;;;;;;;34.73;20.97;;;;;;;9.29;68.46;101445.88;1754059;81;20935;-78
2021/04/29 05:01:54;;;;;;;42.43;20.90;;;;;;;9.71;67.51;101449.34;1765628;81;21384;-78
2021/04/29 05:04:24;;;;;;;33.67;20.30;;;;;;;10.09;66.41;101443.76;1753922;81;20998;-75
2021/04/29 05:06:54;;;;;;;31.33;19.70;;;;;;;10.52;64.86;101432.64;1727273;81;20955;-75
2021/04/29 05:09:23;;;;;;;33.65;18.70;;;;;;;10.97;63.25;101437.08;1726678;81;20996;-75
2021/04/29 05:11:52;;;;;;;33.55;19.73;;;;;;;11.46;61.37;101441.69;1753535;81;20994;-80
2021/04/29 05:14:20;;;;;;;32.35;18.40;;;;;;;11.85;60.11;101436.17;1754559;81;21042;-80
2021/04/29 05:16:49;;;;;;;30.43;17.00;;;;;;;12.19;58.76;101435.72;1745827;81;21009;-76
2021/04/29 05:19:18;;;;;;;29.42;17.85;;;;;;;12.38;56.85;101437.75;1745241;82;21697;-77
2021/04/29 05:21:47;;;;;;;33.02;17.20;;;;;;;12.56;56.10;101435.89;1725813;82;20959;-76
2021/04/29 05:24:15;;;;;;;32.15;16.95;;;;;;;12.75;55.19;101430.44;1739222;82;20950;-75
2021/04/29 05:26:45;;;;;;;25.88;14.40;;;;;;;13.13;53.76;101436.63;1756275;81;21368;-77
2021/04/29 05:29:13;;;;;;;23.65;14.28;;;;;;;13.63;53.14;101432.84;1737102;82;21077;-76
2021/04/29 05:31:41;;;;;;;16.35;7.97;;;;;;;14.19;49.94;101433.44;1753289;80;21005;-77
2021/04/29 05:34:09;;;;;;;16.10;9.15;;;;;;;14.81;44.14;101421.19;1753433;80;20990;-78
2021/04/29 05:36:38;;;;;;;20.30;12.30;;;;;;;14.81;44.14;101421.19;1737090;82;20931;-77
2021/04/29 05:39:07;;;;;;;19.65;11.93;;;;;;;15.28;44.99;101425.12;1753632;81;21384;-76
2021/04/29 05:41:35;;;;;;;23.77;11.40;;;;;;;15.87;44.96;101428.62;1737057;82;21006;-76
2021/04/29 05:44:04;;;;;;;25.43;12.45;;;;;;;16.45;44.20;101429.83;1753483;81;20926;-76
2021/04/29 05:46:32;;;;;;;18.40;11.40;;;;;;;17.01;42.24;101426.67;1737021;82;20998;-77
2021/04/29 05:49:00;;;;;;;19.23;11.73;;;;;;;17.60;42.19;101429.73;1726070;81;21364;-76
2021/04/29 05:51:28;;;;;;;12.47;8.00;;;;;;;18.17;40.11;101431.50;1736977;82;21379;-76
2021/04/29 05:53:56;;;;;;;20.43;10.32;;;;;;;18.61;36.37;101428.42;1753315;81;20963;-76
2021/04/29 05:56:25;;;;;;;9.08;5.75;;;;;;;18.85;35.70;101423.41;1753459;81;20946;-75
2021/04/29 05:58:53;;;;;;;10.90;6.83;;;;;;;18.99;34.76;101427.13;1753423;81;21033;-76
2021/04/29 06:01:20;;;;;;;11.20;6.87;;;;;;;19.05;34.55;101410.67;1737086;81;20998;-77
2021/04/29 06:03:49;;;;;;;15.28;8.08;;;;;;;19.12;33.77;101416.78;1753421;81;22217;-76
2021/04/29 06:06:17;;;;;;;16.05;9.25;;;;;;;19.33;34.27;101416.32;1756696;81;20947;-77
2021/04/29 06:08:46;;;;;;;19.07;9.55;;;;;;;19.67;33.71;101422.75;1745028;82;20951;-77
2021/04/29 06:11:14;;;;;;;11.78;8.15;;;;;;;20.04;33.09;101420.95;1751869;82;20943;-76
2021/04/29 06:13:44;;;;;;;15.65;10.98;;;;;;;20.32;33.16;101418.03;1745253;82;21011;-74
2021/04/29 06:16:14;;;;;;;18.57;12.45;;;;;;;20.57;31.99;101420.71;1752078;82;22209;-71
2021/04/29 06:18:43;;;;;;;14.38;9.33;;;;;;;20.83;32.30;101415.70;1745102;81;20964;-70
2021/04/29 06:21:12;;;;;;;12.85;6.62;;;;;;;21.20;32.59;101422.14;1775925;80;21003;-71
2021/04/29 06:23:40;;;;;;;10.35;7.28;;;;;;;21.50;31.00;101417.98;1814532;79;20966;-71
2021/04/29 06:26:08;;;;;;;11.30;6.35;;;;;;;21.67;30.05;101426.23;1814484;79;21088;-72
2021/04/29 06:28:36;;;;;;;11.35;7.15;;;;;;;21.86;29.89;101422.66;1814728;79;21357;-70
2021/04/29 06:31:04;;;;;;;11.68;5.12;;;;;;;22.08;29.64;101434.81;1814769;78;20955;-74
2021/04/29 06:33:33;;;;;;;5.20;3.42;;;;;;;22.22;27.61;101433.51;1814775;78;20923;-73
2021/04/29 06:36:01;;;;;;;3.67;2.65;;;;;;;22.14;27.42;101431.53;1814733;79;20959;-72
2021/04/29 06:38:36;;;;;;;7.40;2.55;;;;;;;22.00;26.96;101429.36;1814393;78;21011;-76
2021/04/29 06:41:03;;;;;;;4.37;1.70;;;;;;;21.98;27.25;101432.16;1814784;79;21386;-77
2021/04/29 06:43:32;;;;;;;2.80;1.47;;;;;;;22.02;26.34;101433.55;1815181;78;21073;-76
2021/04/29 06:46:00;;;;;;;3.77;2.00;;;;;;;21.99;27.01;101427.19;1815022;78;21010;-76
2021/04/29 06:48:28;;;;;;;5.33;1.85;;;;;;;22.16;26.42;101436.23;1814669;78;21045;-75
2021/04/29 06:50:57;;;;;;;2.60;2.20;;;;;;;22.21;25.26;101426.43;1814769;78;20934;-76
2021/04/29 06:53:25;;;;;;;2.98;1.82;;;;;;;22.09;25.40;101429.30;1814911;78;22357;-77
2021/04/29 06:55:54;;;;;;;10.58;2.95;;;;;;;21.99;25.69;101426.31;1814785;78;21500;-78
2021/04/29 06:58:23;;;;;;;3.90;2.70;;;;;;;21.93;25.85;101419.75;1814745;79;20943;-76
2021/04/29 07:00:52;;;;;;;5.28;3.17;;;;;;;21.94;25.41;101416.08;1814703;79;20990;-76
2021/04/29 07:03:20;;;;;;;5.97;2.27;;;;;;;22.00;25.33;101416.00;1814715;78;21010;-78
2021/04/29 07:05:49;;;;;;;4.10;2.60;;;;;;;22.05;25.79;101424.41;1814617;79;21433;-78
2021/04/29 07:08:18;;;;;;;3.98;2.30;;;;;;;22.20;27.04;101430.11;1814634;78;21056;-76
2021/04/29 07:10:49;;;;;;;6.72;2.95;;;;;;;22.23;25.16;101431.17;1814778;78;20987;-79
2021/04/29 07:13:17;;;;;;;4.42;2.55;;;;;;;21.82;25.22;101431.95;1814822;78;21400;-79
2021/04/29 07:15:45;;;;;;;4.55;2.67;;;;;;;21.59;25.54;101439.44;1814685;78;20939;-78
2021/04/29 07:18:14;;;;;;;2.37;2.10;;;;;;;21.42;26.12;101427.69;1814843;79;22347;-79
2021/04/29 07:20:42;;;;;;;1.70;1.50;;;;;;;21.49;25.97;101424.80;1814796;79;21578;-79
2021/04/29 07:23:11;;;;;;;3.62;1.70;;;;;;;21.63;26.62;101418.16;1814721;78;20955;-75
2021/04/29 07:25:39;;;;;;;2.52;1.55;;;;;;;21.87;25.11;101425.17;1814660;78;21082;-80
2021/04/29 07:28:07;;;;;;;3.42;1.92;;;;;;;22.02;25.30;101424.20;1814887;79;20887;-82
2021/04/29 07:30:35;;;;;;;3.58;1.85;;;;;;;22.18;24.64;101423.56;1814839;78;22327;-83
2021/04/29 07:33:03;;;;;;;4.62;1.98;;;;;;;22.29;24.72;101431.92;1814861;78;20899;-81
2021/04/29 07:35:32;;;;;;;4.95;1.92;;;;;;;22.33;24.46;101428.80;1815134;79;20995;-82
2021/04/29 07:38:02;;;;;;;5.35;1.75;;;;;;;22.32;24.18;101437.82;1814904;78;20990;-82
2021/04/29 07:40:32;;;;;;;6.33;2.40;;;;;;;22.29;24.82;101419.39;1814719;79;21396;-78
2021/04/29 07:43:02;;;;;;;3.98;1.87;;;;;;;22.27;25.19;101414.69;1814935;79;21063;-78
2021/04/29 07:45:32;;;;;;;2.90;2.60;;;;;;;22.28;25.38;101403.53;1814791;79;20924;-77
2021/04/29 07:48:01;;;;;;;6.28;2.83;;;;;;;22.37;25.46;101406.63;1814789;79;21018;-81
2021/04/29 07:50:32;;;;;;;2.70;2.25;;;;;;;22.46;26.12;101415.59;1814727;78;21053;-79
2021/04/29 07:53:00;;;;;;;8.30;2.52;;;;;;;22.50;26.20;101404.91;1814916;78;20970;-81
2021/04/29 07:55:28;;;;;;;4.12;2.10;;;;;;;22.55;26.13;101403.48;1814717;79;21369;-82
2021/04/29 07:57:55;;;;;;;3.62;2.12;;;;;;;22.49;25.66;101397.39;1814860;78;21388;-81
2021/04/29 08:00:24;;;;;;;6.22;2.58;;;;;;;22.34;26.80;101397.56;1814903;79;20915;-81
2021/04/29 08:02:52;;;;;;;4.42;2.80;;;;;;;22.26;26.88;101413.52;1814881;79;21424;-81
2021/04/29 08:05:20;;;;;;;4.70;2.58;;;;;;;22.18;26.94;101396.02;1814843;78;20986;-82
2021/04/29 08:07:50;;;;;;;3.52;2.58;;;;;;;21.99;27.42;101400.95;1814720;78;21386;-81
2021/04/29 08:10:18;;;;;;;4.87;2.80;;;;;;;21.82;28.18;101394.06;1814728;78;20946;-74
2021/04/29 08:12:48;;;;;;;3.30;2.62;;;;;;;21.81;27.94;101391.06;1814693;78;21002;-77
2021/04/29 08:15:18;;;;;;;5.37;2.80;;;;;;;21.83;27.69;101394.43;1814682;79;20938;-76
2021/04/29 08:17:46;;;;;;;5.47;3.12;;;;;;;21.77;28.23;101384.33;1814605;78;21449;-76
2021/04/29 08:20:15;;;;;;;6.03;2.77;;;;;;;21.73;28.74;101385.10;1814770;78;21190;-76
2021/04/29 08:22:43;;;;;;;3.22;2.77;;;;;;;21.71;28.43;101390.25;1814859;79;20954;-75
2021/04/29 08:25:12;;;;;;;3.33;2.92;;;;;;;21.57;28.31;101396.90;1814730;78;20998;-75
2021/04/29 08:27:47;;;;;;;4.87;2.62;;;;;;;21.50;28.61;101387.30;1814823;78;21017;-76
2021/04/29 08:30:17;;;;;;;2.90;2.50;;;;;;;21.60;29.84;101382.41;1814787;78;21334;-75
2021/04/29 08:32:45;;;;;;;2.67;1.95;;;;;;;21.81;28.88;101376.37;1814802;78;21496;-75
2021/04/29 08:35:14;;;;;;;4.35;2.83;;;;;;;22.06;28.83;101381.52;1814604;78;20946;-77
2021/04/29 08:37:47;;;;;;;;;;;;;;;22.34;28.09;101369.50;1817215;78;21089;-77
2021/04/29 08:40:15;;;;;;;3.80;2.55;;;;;;;22.55;28.37;101378.59;1814663;79;20133;-75
2021/04/29 08:42:44;;;;;;;3.90;3.02;;;;;;;22.75;28.40;101367.25;1814656;79;20963;-77
2021/04/29 08:45:14;;;;;;;3.22;2.75;;;;;;;22.86;27.62;101372.86;1814603;78;21333;-75
2021/04/29 08:47:43;;;;;;;2.40;2.20;;;;;;;22.92;27.94;101364.20;1814553;78;21018;-76
2021/04/29 08:50:13;;;;;;;4.10;2.67;;;;;;;23.06;27.77;101352.16;1783630;79;20938;-77
2021/04/29 08:52:41;;;;;;;5.45;2.50;;;;;;;23.36;27.50;101358.36;1814648;78;21034;-77
2021/04/29 08:55:16;;;;;;;3.20;2.72;;;;;;;23.59;27.28;101360.53;1814734;78;21010;-74
2021/04/29 08:57:45;;;;;;;4.72;3.33;;;;;;;23.73;27.25;101357.23;1814350;78;21818;-78
2021/04/29 09:00:15;;;;;;;6.37;2.87;;;;;;;23.67;26.68;101347.66;1814605;78;20962;-75
2021/04/29 09:02:43;;;;;;;4.37;2.70;;;;;;;23.50;26.88;101356.97;1814735;79;20991;-78
2021/04/29 09:05:18;;;;;;;3.30;2.12;;;;;;;23.37;27.06;101361.91;1814761;79;20986;-76
2021/04/29 09:08:08;;;;;;;5.03;3.12;;;;;;;23.29;27.77;101345.28;1819935;78;20923;-79
2021/04/29 09:10:42;;;;;;;3.90;2.70;;;;;;;23.26;27.85;101347.45;1823804;78;21197;-76
2021/04/29 09:13:22;;;;;;;7.72;3.08;;;;;;;23.45;27.83;101337.00;1824362;78;21053;-77
2021/04/29 09:15:50;;;;;;;5.10;2.30;;;;;;;23.23;28.60;101339.72;1821979;78;20942;-81
2021/04/29 09:18:20;;;;;;;5.92;3.08;;;;;;;23.44;28.79;101339.36;1823878;78;20985;-77
2021/04/29 09:34:45;;;;;;;2.20;2.00;;;;;;;23.45;28.35;101327.64;1816032;78;22542;-79
2021/04/29 09:37:29;;;;;;;2.17;1.75;;;;;;;23.39;27.42;101333.14;1789166;80;21566;-78
2021/04/29 09:40:00;;;;;;;4.30;2.90;;;;;;;23.03;27.52;101320.34;1787637;80;21199;-78
2021/04/29 09:42:36;;;;;;;4.62;2.40;;;;;;;22.69;28.29;101317.05;1789174;80;20962;-78
2021/04/29 09:45:18;;;;;;;3.75;2.02;;;;;;;22.44;28.34;101320.01;1789110;80;21018;-79
2021/04/29 09:48:04;;;;;;;5.95;2.47;;;;;;;22.10;28.92;101307.28;1787358;80;20935;-80
2021/04/29 09:50:36;;;;;;;5.33;2.45;;;;;;;21.73;29.52;101310.34;1789162;80;20938;-75
2021/04/29 09:53:09;;;;;;;3.55;2.37;;;;;;;21.33;29.86;101302.12;1789059;80;21436;-76
2021/04/29 09:55:42;;;;;;;3.25;2.95;;;;;;;21.22;29.95;101304.13;1788971;80;21369;-74
2021/04/29 09:58:23;;;;;;;6.03;2.83;;;;;;;20.92;30.45;101315.36;1789204;80;20899;-77
2021/04/29 10:00:51;;;;;;;5.42;2.50;;;;;;;20.52;30.64;101302.14;1788961;80;20907;-76
2021/04/29 10:03:20;;;;;;;8.05;3.08;;;;;;;20.27;31.36;101285.72;1789174;80;21349;-74
2021/04/29 10:05:53;;;;;;;5.92;3.42;;;;;;;20.45;31.37;101297.39;1789079;80;21339;-75
2021/04/29 10:08:26;;;;;;;5.08;2.80;;;;;;;20.67;31.09;101297.61;1789036;79;21404;-77
2021/04/29 10:10:56;;;;;;;3.45;2.60;;;;;;;20.74;31.35;101295.72;1789031;80;20958;-74
2021/04/29 10:13:30;;;;;;;3.42;2.45;;;;;;;20.77;31.57;101294.12;1788761;80;20998;-72
2021/04/29 10:16:00;;;;;;;6.50;2.58;;;;;;;20.98;31.22;101298.77;1789068;80;20891;-75
2021/04/29 10:18:29;;;;;;;4.03;2.60;;;;;;;21.32;31.59;101296.45;1789019;80;21149;-75
2021/04/29 10:21:51;;;;;;;6.92;3.47;;;;;;;21.88;31.39;101270.64;1815942;79;22606;-74
2021/04/29 10:24:21;;;;;;;5.35;2.87;;;;;;;21.91;30.08;101272.17;1789192;80;21376;-76
2021/04/29 10:26:53;;;;;;;4.22;3.05;;;;;;;21.97;30.89;101275.58;1789052;80;21423;-74
2021/04/29 10:29:21;;;;;;;4.10;2.58;;;;;;;21.99;29.71;101269.59;1759175;80;20981;-74
2021/04/29 10:31:56;;;;;;;6.22;3.33;;;;;;;21.83;30.26;101277.41;1789054;80;21029;-75
2021/04/29 10:34:25;;;;;;;4.72;3.27;;;;;;;21.62;30.38;101279.84;1789040;79;20922;-75
2021/04/29 10:36:53;;;;;;;5.60;3.30;;;;;;;21.28;30.76;101283.05;1789058;79;20958;-75
2021/04/29 10:39:24;;;;;;;4.50;3.65;;;;;;;20.95;31.44;101274.23;1789025;80;21615;-74
2021/04/29 10:42:09;;;;;;;5.17;3.12;;;;;;;20.83;32.14;101265.53;1789137;80;20986;-74
2021/04/29 10:44:49;;;;;;;3.35;2.60;;;;;;;20.96;32.17;101266.56;1789026;80;21056;-73
2021/04/29 10:47:30;;;;;;;4.03;2.87;;;;;;;21.24;31.79;101262.14;1788971;80;21455;-76
2021/04/29 10:50:17;;;;;;;5.53;2.95;;;;;;;21.62;30.51;101250.48;1788968;79;20973;-76
2021/04/29 10:52:55;;;;;;;5.97;2.70;;;;;;;22.09;30.28;101256.16;1789127;80;21356;-77
2021/04/29 10:55:36;;;;;;;4.22;3.15;;;;;;;22.60;29.81;101243.12;1788897;80;20950;-74
2021/04/29 10:58:07;;;;;;;7.90;2.90;;;;;;;23.05;29.50;101252.30;1788942;80;20950;-75
2021/04/29 11:00:39;;;;;;;3.67;3.15;;;;;;;23.08;28.30;101246.66;1788981;79;20938;-74
2021/04/29 11:03:07;;;;;;;5.90;2.80;;;;;;;22.75;28.77;101240.22;1776368;80;20946;-74
2021/04/29 11:05:37;;;;;;;7.50;2.98;;;;;;;22.49;29.05;101236.17;1789128;80;21409;-76
2021/04/29 11:08:08;;;;;;;4.03;3.12;;;;;;;22.06;29.64;101222.58;1788752;79;20957;-72
2021/04/29 11:10:38;;;;;;;4.97;3.15;;;;;;;21.64;30.11;101223.14;1788628;80;20933;-76
2021/04/29 11:13:07;;;;;;;5.42;2.87;;;;;;;21.12;30.63;101224.12;1788832;80;20926;-73
2021/04/29 11:15:40;;;;;;;4.72;3.40;;;;;;;20.63;31.24;101220.28;1789030;80;20942;-74
2021/04/29 11:18:22;;;;;;;4.42;2.37;;;;;;;20.23;32.11;101228.38;1789159;79;21498;-76
2021/04/29 11:20:58;;;;;;;4.10;2.58;;;;;;;20.23;31.73;101234.58;1785293;79;21056;-74
2021/04/29 11:23:42;;;;;;;3.50;2.50;;;;;;;20.25;32.40;101220.63;1789345;79;20894;-77
2021/04/29 11:26:20;;;;;;;5.42;3.17;;;;;;;20.40;32.03;101210.86;1789511;80;20977;-75
2021/04/29 11:28:48;;;;;;;7.35;2.52;;;;;;;20.66;32.40;101201.82;1789307;80;20962;-73
2021/04/29 11:31:18;;;;;;;4.65;3.17;;;;;;;20.97;32.65;101197.60;1760963;80;21438;-75
2021/04/29 11:33:48;;;;;;;5.10;3.08;;;;;;;21.37;32.14;101194.61;1788725;80;21353;-74
2021/04/29 11:36:20;;;;;;;4.62;2.58;;;;;;;21.77;31.19;101189.42;1788706;79;21042;-74
2021/04/29 11:38:58;;;;;;;3.80;1.92;;;;;;;21.88;30.08;101181.69;1788644;80;21023;-74
2021/04/29 11:41:28;;;;;;;3.45;2.22;;;;;;;21.82;29.79;101180.45;1788651;79;20942;-74
2021/04/29 11:44:02;;;;;;;5.03;2.22;;;;;;;21.66;30.12;101181.12;1788919;80;21428;-73
2021/04/29 11:46:31;;;;;;;2.47;1.90;;;;;;;21.51;30.15;101182.13;1789436;79;21475;-73
2021/04/29 11:49:07;;;;;;;2.30;2.10;;;;;;;21.38;30.15;101172.27;1788715;79;21013;-76